Time;durP1;ratioP1;P1;durP2;ratioP2;P2;SDS_P1;SDS_P2;PMS_P1;PMS_P2;Temp;Humidity;BMP_temperature;BMP_pressure;BME280_temperature;BME280_humidity;BME280_pressure;Samples;Min_cycle;Max_cycle;Signal;HPM_P1;HPM_P2
2022/10/07 00:01:21;;;;;;;7.13;4.70;;;;;;;7.29;77.32;102405.44;7401749;19;20072;-67
2022/10/07 00:03:50;;;;;;;11.88;3.95;;;;;;;7.26;77.35;102402.75;7401817;19;20031;-68
2022/10/07 00:06:20;;;;;;;5.85;3.92;;;;;;;7.24;77.45;102399.25;7401727;19;20014;-68
2022/10/07 00:08:52;;;;;;;7.57;3.88;;;;;;;7.22;77.53;102400.97;7399131;19;20027;-68
2022/10/07 00:11:25;;;;;;;6.95;3.65;;;;;;;7.18;77.47;102404.38;7401849;19;20031;-67
2022/10/07 00:13:56;;;;;;;9.75;3.67;;;;;;;7.16;77.58;102406.06;7401853;19;20022;-67
2022/10/07 00:16:27;;;;;;;11.10;3.88;;;;;;;7.12;77.44;102397.28;7398634;19;20431;-66
2022/10/07 00:18:58;;;;;;;13.63;4.03;;;;;;;7.09;77.53;102399.84;7398145;19;20021;-67
2022/10/07 00:21:29;;;;;;;6.00;3.88;;;;;;;7.06;77.76;102399.78;7401727;19;20029;-67
2022/10/07 00:23:58;;;;;;;9.80;4.45;;;;;;;7.04;77.64;102393.66;7401582;19;20014;-67
2022/10/07 00:26:31;;;;;;;7.88;3.72;;;;;;;7.01;77.76;102401.41;7400974;19;20018;-66
2022/10/07 00:29:00;;;;;;;7.70;3.83;;;;;;;6.97;77.99;102400.47;7400737;19;20057;-67
2022/10/07 00:31:30;;;;;;;9.85;4.30;;;;;;;6.96;78.04;102397.84;7400924;19;20047;-67
2022/10/07 00:34:05;;;;;;;7.10;4.35;;;;;;;6.92;78.05;102396.88;7400844;19;20019;-67
2022/10/07 00:36:37;;;;;;;9.10;4.53;;;;;;;6.89;78.14;102396.84;7400725;19;20023;-67
2022/10/07 00:39:09;;;;;;;9.13;4.70;;;;;;;6.87;78.22;102397.66;7398707;19;20101;-68
2022/10/07 00:41:42;;;;;;;6.50;3.50;;;;;;;6.84;78.18;102395.88;7400243;19;20018;-68
2022/10/07 00:44:40;;;;;;;8.65;4.57;;;;;;;6.79;78.13;102387.94;7399444;19;20027;-67
2022/10/07 00:47:15;;;;;;;8.25;4.18;;;;;;;6.77;78.38;102388.75;7397768;19;20029;-67
2022/10/07 00:49:46;;;;;;;12.27;4.07;;;;;;;6.74;78.19;102381.75;7398295;19;20039;-67
2022/10/07 00:52:19;;;;;;;37.10;20.35;;;;;;;6.73;78.25;102384.34;7398128;19;20018;-68
2022/10/07 00:54:48;;;;;;;15.60;8.38;;;;;;;6.70;78.32;102372.13;7397405;19;20501;-67
2022/10/07 00:57:20;;;;;;;9.85;4.88;;;;;;;6.68;78.59;102377.31;7399122;19;20040;-67
2022/10/07 00:59:49;;;;;;;9.25;4.00;;;;;;;6.67;78.55;102372.03;7400380;19;20023;-67
2022/10/07 01:02:17;;;;;;;11.07;3.85;;;;;;;6.64;78.63;102367.63;7399416;19;20506;-67
2022/10/07 01:04:47;;;;;;;8.57;3.95;;;;;;;6.61;78.63;102359.75;7399910;19;20102;-68
2022/10/07 01:07:20;;;;;;;6.22;3.85;;;;;;;6.58;78.79;102359.69;7397179;19;20019;-67
2022/10/07 01:09:50;;;;;;;9.15;4.28;;;;;;;6.57;78.75;102364.88;7399311;19;20074;-67
2022/10/07 01:12:30;;;;;;;10.68;3.65;;;;;;;6.53;78.99;102358.72;7399905;19;20032;-67
2022/10/07 01:15:06;;;;;;;10.48;4.18;;;;;;;6.51;78.96;102352.59;7399201;19;20027;-67
2022/10/07 01:17:45;;;;;;;6.97;3.67;;;;;;;6.48;79.05;102353.41;7397820;19;20018;-67
2022/10/07 01:20:24;;;;;;;7.15;4.05;;;;;;;6.48;79.04;102352.53;7398936;19;20489;-67
2022/10/07 01:23:08;;;;;;;4.78;3.60;;;;;;;6.45;78.85;102344.66;7396652;19;20505;-67
2022/10/07 01:26:00;;;;;;;7.97;3.92;;;;;;;6.43;79.18;102351.56;7399494;19;20029;-68
2022/10/07 01:28:36;;;;;;;9.73;3.92;;;;;;;6.40;79.03;102336.72;7396876;19;20510;-67
2022/10/07 01:31:07;;;;;;;7.93;4.45;;;;;;;6.38;79.04;102337.53;7399345;19;20035;-68
2022/10/07 01:33:38;;;;;;;7.88;3.90;;;;;;;6.35;79.02;102334.00;7398454;19;20018;-67
2022/10/07 01:36:11;;;;;;;11.75;4.10;;;;;;;6.34;79.27;102329.66;7398378;19;20045;-68
2022/10/07 01:38:47;;;;;;;7.85;4.00;;;;;;;6.30;79.35;102325.22;7396694;19;20018;-67
2022/10/07 01:41:19;;;;;;;9.65;4.30;;;;;;;6.28;79.51;102319.09;7398194;19;20014;-67
2022/10/07 01:43:54;;;;;;;10.18;4.95;;;;;;;6.27;79.40;102313.84;7396079;19;20074;-67
2022/10/07 01:46:25;;;;;;;9.50;4.78;;;;;;;6.22;79.57;102316.38;7398447;19;20018;-67
2022/10/07 01:48:54;;;;;;;5.10;4.32;;;;;;;6.23;79.71;102320.75;7396133;19;20035;-67
2022/10/07 01:51:26;;;;;;;6.95;4.20;;;;;;;6.19;79.85;102316.28;7397760;19;20243;-67
2022/10/07 01:54:01;;;;;;;5.35;4.55;;;;;;;6.16;79.92;102313.63;7395766;19;20014;-67
2022/10/07 01:56:47;;;;;;;8.02;4.45;;;;;;;6.14;79.88;102307.47;7398434;19;20031;-66
2022/10/07 01:59:36;;;;;;;8.40;4.15;;;;;;;6.12;80.13;102306.59;7396622;19;20014;-67
2022/10/07 02:02:13;;;;;;;6.22;4.70;;;;;;;6.09;80.10;102303.91;7398210;19;20019;-67
2022/10/07 02:04:52;;;;;;;11.63;4.47;;;;;;;6.07;79.96;102300.41;7396284;19;20022;-67
2022/10/07 02:07:32;;;;;;;9.85;4.25;;;;;;;6.05;79.98;102299.47;7397338;19;20022;-67
2022/10/07 02:10:11;;;;;;;11.05;4.93;;;;;;;6.02;80.20;102300.28;7395875;19;20019;-67
2022/10/07 02:12:44;;;;;;;7.55;4.55;;;;;;;6.00;80.27;102292.44;7397133;19;20481;-67
2022/10/07 02:15:18;;;;;;;8.68;4.93;;;;;;;5.97;80.41;102292.31;7397739;19;20023;-67
2022/10/07 02:17:54;;;;;;;8.57;4.22;;;;;;;5.96;80.44;102290.56;7396785;19;20078;-69
2022/10/07 02:20:28;;;;;;;10.07;4.82;;;;;;;5.94;80.46;102286.16;7398981;19;20018;-66
2022/10/07 02:23:01;;;;;;;9.85;4.70;;;;;;;5.92;80.65;102287.88;7397967;19;20489;-67
2022/10/07 02:25:39;;;;;;;9.85;4.55;;;;;;;5.88;80.68;102277.38;7397334;19;20027;-67
2022/10/07 02:28:08;;;;;;;6.53;3.97;;;;;;;5.86;80.57;102275.59;7395209;19;20085;-68
2022/10/07 02:30:42;;;;;;;15.20;5.97;;;;;;;5.84;80.75;102270.34;7396297;19;20376;-67
2022/10/07 02:33:12;;;;;;;10.63;4.78;;;;;;;5.82;80.65;102277.22;7396447;19;20078;-67
2022/10/07 02:35:46;;;;;;;9.05;4.75;;;;;;;5.79;80.77;102273.72;7396163;19;20381;-68
2022/10/07 02:38:18;;;;;;;11.63;5.00;;;;;;;5.77;80.83;102271.03;7395306;19;20023;-67
2022/10/07 02:40:56;;;;;;;9.75;4.47;;;;;;;5.76;81.10;102271.00;7396896;19;20039;-66
2022/10/07 02:43:31;;;;;;;11.75;5.00;;;;;;;5.74;81.12;102267.47;7396870;19;20026;-67
2022/10/07 02:46:07;;;;;;;7.78;5.00;;;;;;;5.73;81.13;102273.56;7394895;19;20397;-67
2022/10/07 02:48:40;;;;;;;8.40;5.70;;;;;;;5.70;81.29;102271.78;7395015;19;20022;-67
2022/10/07 02:51:17;;;;;;;8.32;5.28;;;;;;;5.69;81.13;102259.59;7396058;19;20489;-68
2022/10/07 02:53:48;;;;;;;11.45;5.22;;;;;;;5.66;81.26;102265.59;7394872;19;20048;-68
2022/10/07 02:56:17;;;;;;;6.53;4.90;;;;;;;5.64;81.51;102264.69;7394021;19;20014;-67
2022/10/07 02:58:48;;;;;;;14.48;6.75;;;;;;;5.63;81.43;102257.72;7393973;19;20031;-67
2022/10/07 03:01:24;;;;;;;13.95;5.13;;;;;;;5.61;81.45;102264.63;7395542;19;20011;-67
2022/10/07 03:03:53;;;;;;;11.32;5.82;;;;;;;5.59;81.54;102255.88;7396306;19;20011;-68
2022/10/07 03:06:22;;;;;;;10.68;5.47;;;;;;;5.55;81.75;102252.31;7395665;19;20015;-68
2022/10/07 03:08:50;;;;;;;12.38;5.30;;;;;;;5.54;81.97;102249.69;7393924;19;20041;-68
2022/10/07 03:11:19;;;;;;;13.77;5.55;;;;;;;5.51;82.04;102244.41;7395409;19;20379;-68
2022/10/07 03:13:47;;;;;;;12.70;5.60;;;;;;;5.51;82.17;102247.91;7395626;19;20094;-68
2022/10/07 03:16:18;;;;;;;19.55;7.07;;;;;;;5.50;82.13;102248.72;7395348;19;20022;-67
2022/10/07 03:18:47;;;;;;;11.63;6.80;;;;;;;5.48;82.33;102245.22;7393726;19;20039;-67
2022/10/07 03:21:15;;;;;;;15.60;7.60;;;;;;;5.47;82.09;102238.25;7394932;19;20022;-67
2022/10/07 03:23:44;;;;;;;16.23;7.20;;;;;;;5.46;82.37;102243.41;7395453;19;20035;-68
2022/10/07 03:26:12;;;;;;;12.88;7.70;;;;;;;5.45;82.24;102239.06;7393415;19;20015;-67
2022/10/07 03:28:40;;;;;;;12.25;8.30;;;;;;;5.45;82.54;102239.06;7393134;19;20497;-67
2022/10/07 03:31:12;;;;;;;15.13;8.90;;;;;;;5.43;82.56;102239.00;7397704;19;20022;-68
2022/10/07 03:33:44;;;;;;;15.82;7.65;;;;;;;5.43;82.71;102238.16;7402407;19;20082;-67
2022/10/07 03:36:13;;;;;;;9.93;7.97;;;;;;;5.41;82.89;102232.91;7402621;19;20086;-67
2022/10/07 03:38:42;;;;;;;15.48;8.90;;;;;;;5.41;82.79;102237.22;7398855;19;20488;-67
2022/10/07 03:41:10;;;;;;;12.05;7.78;;;;;;;5.39;82.83;102231.97;7401768;19;20037;-68
2022/10/07 03:43:39;;;;;;;12.95;7.07;;;;;;;5.38;83.08;102232.81;7401741;19;20472;-67
2022/10/07 03:46:16;;;;;;;13.45;7.88;;;;;;;5.37;83.21;102226.75;7398268;19;20014;-67
2022/10/07 03:48:47;;;;;;;13.75;7.50;;;;;;;5.35;83.29;102224.97;7399591;19;20014;-67
2022/10/07 03:51:15;;;;;;;13.30;6.55;;;;;;;5.33;83.27;102217.13;7402333;19;20098;-66
2022/10/07 03:53:44;;;;;;;12.35;7.55;;;;;;;5.34;83.33;102212.78;7402682;19;20388;-67
2022/10/07 03:56:12;;;;;;;12.95;6.90;;;;;;;5.33;83.47;102211.91;7399068;19;20078;-68
2022/10/07 03:58:41;;;;;;;11.38;7.07;;;;;;;5.33;83.54;102213.63;7398984;19;20073;-68
2022/10/07 04:01:10;;;;;;;9.40;6.13;;;;;;;5.32;83.71;102210.16;7401751;19;20022;-67
2022/10/07 04:03:39;;;;;;;9.60;6.15;;;;;;;5.31;83.61;102205.78;7401560;19;20011;-67
2022/10/07 04:06:11;;;;;;;12.55;6.93;;;;;;;5.30;83.78;102204.03;7400901;19;20431;-67
2022/10/07 04:08:39;;;;;;;12.48;6.15;;;;;;;5.30;83.95;102204.03;7399026;19;20022;-67
2022/10/07 04:11:08;;;;;;;8.73;6.90;;;;;;;5.28;83.85;102203.13;7401343;19;20017;-68
2022/10/07 04:13:37;;;;;;;12.50;7.30;;;;;;;5.27;84.11;102196.16;7401386;19;20078;-67
2022/10/07 04:16:08;;;;;;;10.77;7.00;;;;;;;5.26;84.17;102193.50;7400852;19;20514;-67
2022/10/07 04:18:36;;;;;;;12.48;7.00;;;;;;;5.24;84.15;102190.84;7398910;19;20022;-67
2022/10/07 04:21:05;;;;;;;17.88;7.43;;;;;;;5.25;84.15;102194.34;7400744;19;20035;-67
2022/10/07 04:23:37;;;;;;;12.68;7.57;;;;;;;5.23;84.32;102189.09;7400786;19;20078;-67
2022/10/07 04:26:10;;;;;;;14.70;7.18;;;;;;;5.23;84.44;102186.50;7400105;19;20087;-67
2022/10/07 04:28:39;;;;;;;11.88;6.97;;;;;;;5.22;84.38;102187.34;7398249;19;20018;-69
2022/10/07 04:31:09;;;;;;;13.88;7.00;;;;;;;5.21;84.48;102186.47;7399899;19;20086;-66
2022/10/07 04:33:40;;;;;;;13.63;6.75;;;;;;;5.21;84.71;102178.66;7400896;19;20094;-67
2022/10/07 04:36:11;;;;;;;11.35;7.10;;;;;;;5.18;84.38;102176.00;7398004;19;20034;-69
2022/10/07 04:38:44;;;;;;;9.38;6.97;;;;;;;5.17;84.47;102174.22;7397712;19;20074;-68
2022/10/07 04:41:12;;;;;;;11.35;6.97;;;;;;;5.16;84.60;102174.19;7397644;19;20029;-67
2022/10/07 04:43:41;;;;;;;14.65;6.65;;;;;;;5.14;84.64;102176.75;7395066;19;20015;-69
2022/10/07 04:46:12;;;;;;;10.95;6.63;;;;;;;5.12;84.77;102175.84;7396854;19;20544;-67
2022/10/07 04:48:41;;;;;;;11.48;7.18;;;;;;;5.10;84.65;102174.06;7397739;19;20018;-67
2022/10/07 04:51:11;;;;;;;11.45;7.38;;;;;;;5.11;84.74;102170.63;7399719;19;20556;-67
2022/10/07 04:53:42;;;;;;;9.68;6.55;;;;;;;5.09;85.02;102172.28;7400068;19;20067;-68
2022/10/07 04:56:11;;;;;;;15.88;7.93;;;;;;;5.08;85.02;102170.53;7399239;19;20509;-68
2022/10/07 04:58:39;;;;;;;12.70;7.32;;;;;;;5.07;84.99;102169.66;7396709;19;20078;-67
2022/10/07 05:01:10;;;;;;;13.85;7.60;;;;;;;5.05;84.88;102167.03;7396884;19;20081;-66
2022/10/07 05:03:41;;;;;;;9.68;7.55;;;;;;;5.06;85.06;102167.91;7397374;19;20078;-68
2022/10/07 05:06:10;;;;;;;13.80;7.50;;;;;;;5.04;85.22;102165.25;7398127;19;20021;-67
2022/10/07 05:08:39;;;;;;;11.38;7.07;;;;;;;5.02;85.16;102161.72;7396189;19;20017;-68
2022/10/07 05:11:10;;;;;;;12.98;7.78;;;;;;;5.03;85.29;102160.91;7399047;19;20430;-68
2022/10/07 05:13:40;;;;;;;13.57;8.00;;;;;;;5.02;85.50;102161.72;7399793;19;20027;-68
2022/10/07 05:16:10;;;;;;;10.38;7.47;;;;;;;5.00;85.53;102147.81;7398809;19;20073;-68
2022/10/07 05:18:39;;;;;;;14.82;7.68;;;;;;;5.03;85.46;102157.41;7396443;19;20011;-67
2022/10/07 05:21:10;;;;;;;131.65;71.32;;;;;;;5.03;85.83;102153.09;7396259;19;20477;-67
2022/10/07 05:23:38;;;;;;;20.30;12.32;;;;;;;5.03;85.74;102150.50;7398174;19;20430;-67
2022/10/07 05:26:17;;;;;;;14.40;8.88;;;;;;;5.04;85.73;102149.66;7395308;19;20014;-67
2022/10/07 05:28:48;;;;;;;15.55;8.75;;;;;;;5.05;85.82;102141.00;7396443;19;20076;-68
2022/10/07 05:31:17;;;;;;;11.88;7.55;;;;;;;5.05;85.96;102135.81;7397624;19;20025;-67
2022/10/07 05:33:48;;;;;;;12.60;7.88;;;;;;;5.06;85.95;102134.94;7398151;19;20031;-69
2022/10/07 05:36:17;;;;;;;11.60;8.32;;;;;;;5.07;86.31;102135.84;7396653;19;20014;-69
2022/10/07 05:38:46;;;;;;;14.88;9.63;;;;;;;5.07;86.31;102130.63;7396095;19;20018;-64
2022/10/07 05:41:18;;;;;;;13.32;8.88;;;;;;;5.09;86.35;102133.25;7397901;19;20041;-67
2022/10/07 05:43:47;;;;;;;17.23;8.50;;;;;;;5.10;86.45;102132.44;7397466;19;20011;-70
2022/10/07 05:46:28;;;;;;;16.30;8.73;;;;;;;5.11;86.33;102126.38;7396282;19;20007;-68
2022/10/07 05:48:57;;;;;;;15.32;7.93;;;;;;;5.13;86.79;102140.28;7395894;19;20542;-69
2022/10/07 05:51:26;;;;;;;17.48;8.52;;;;;;;5.13;86.75;102127.28;7398025;19;20082;-68
2022/10/07 05:53:55;;;;;;;17.13;8.43;;;;;;;5.16;86.83;102130.84;7395034;19;20094;-68
2022/10/07 05:56:26;;;;;;;17.65;8.13;;;;;;;5.18;87.15;102130.88;7397895;19;20086;-69
2022/10/07 05:58:56;;;;;;;14.20;9.02;;;;;;;5.19;87.09;102130.94;7395784;19;20074;-70
2022/10/07 06:01:26;;;;;;;15.48;8.38;;;;;;;5.22;87.03;102128.38;7397782;19;20435;-69
2022/10/07 06:03:56;;;;;;;11.63;8.50;;;;;;;5.25;87.28;102126.69;7397944;19;20048;-69
2022/10/07 06:06:26;;;;;;;13.98;8.85;;;;;;;5.28;87.31;102130.25;7397904;19;20094;-69
2022/10/07 06:13:06;;;;;;;16.65;9.98;;;;;;;5.31;87.44;102124.25;7395899;19;20077;-69
2022/10/07 06:14:29;;;;;;;15.77;9.10;;;;;;;5.37;87.32;102124.34;7397211;19;20015;-66
2022/10/07 06:16:57;;;;;;;16.65;8.70;;;;;;;5.42;87.62;102125.34;7396522;19;20018;-65
2022/10/07 06:19:26;;;;;;;13.88;9.10;;;;;;;5.47;87.52;102115.03;7396143;19;20078;-65
2022/10/07 06:21:54;;;;;;;15.80;9.45;;;;;;;5.50;87.83;102113.38;7396863;19;20090;-66
2022/10/07 06:24:22;;;;;;;17.17;9.75;;;;;;;5.58;87.93;102120.47;7397368;19;20079;-65
2022/10/07 06:26:54;;;;;;;19.38;9.43;;;;;;;5.63;87.94;102113.63;7396253;19;20082;-66
2022/10/07 06:29:22;;;;;;;14.82;8.82;;;;;;;5.68;87.99;102118.06;7396472;19;20074;-66
2022/10/07 06:31:51;;;;;;;11.57;8.23;;;;;;;5.74;88.18;102113.81;7396309;19;20073;-66
2022/10/07 06:34:19;;;;;;;12.70;8.80;;;;;;;5.78;88.21;102116.53;7396286;19;20023;-65
2022/10/07 06:36:48;;;;;;;17.52;8.82;;;;;;;5.83;88.40;102108.81;7396187;19;20019;-68
2022/10/07 06:39:18;;;;;;;12.90;9.43;;;;;;;5.90;88.41;102107.22;7395083;19;20086;-65
2022/10/07 06:41:46;;;;;;;13.57;9.70;;;;;;;5.95;88.25;102108.19;7393637;19;20423;-66
2022/10/07 06:44:17;;;;;;;16.08;9.30;;;;;;;5.99;88.61;102110.91;7396451;19;20077;-66
2022/10/07 06:46:46;;;;;;;15.75;9.18;;;;;;;6.07;88.38;102110.19;7394124;19;20094;-68
2022/10/07 06:49:14;;;;;;;17.23;9.15;;;;;;;6.12;88.31;102108.53;7395718;19;20035;-69
2022/10/07 06:51:43;;;;;;;13.52;9.35;;;;;;;6.16;88.59;102108.59;7396965;19;20481;-66
2022/10/07 06:54:11;;;;;;;20.52;10.13;;;;;;;6.23;88.72;102117.44;7397218;19;20086;-66
2022/10/07 06:56:40;;;;;;;14.32;8.25;;;;;;;6.29;88.53;102119.28;7397227;19;20436;-66
2022/10/07 06:59:09;;;;;;;15.43;8.80;;;;;;;6.35;88.56;102119.38;7395821;19;20018;-65
2022/10/07 07:01:40;;;;;;;12.88;9.35;;;;;;;6.41;88.62;102122.09;7397261;19;20481;-65
2022/10/07 07:04:08;;;;;;;15.63;8.80;;;;;;;6.47;88.70;102122.22;7395760;19;20083;-66
2022/10/07 07:06:37;;;;;;;16.98;8.45;;;;;;;6.55;88.72;102113.66;7393383;19;20419;-66
2022/10/07 07:09:06;;;;;;;12.20;8.75;;;;;;;6.61;88.80;102117.22;7397194;19;20024;-66
2022/10/07 07:11:39;;;;;;;13.25;8.32;;;;;;;6.70;89.13;102119.13;7396842;19;20432;-65
2022/10/07 07:14:10;;;;;;;15.73;9.52;;;;;;;6.78;89.22;102114.88;7394520;19;20018;-64
2022/10/07 07:16:42;;;;;;;14.77;9.68;;;;;;;6.87;89.06;102113.28;7396372;19;20021;-66
2022/10/07 07:19:13;;;;;;;24.88;13.77;;;;;;;6.96;88.64;102114.31;7396912;19;20011;-65
2022/10/07 07:21:42;;;;;;;19.95;12.32;;;;;;;7.04;88.52;102114.44;7397217;19;20025;-66
2022/10/07 07:24:11;;;;;;;14.40;8.43;;;;;;;7.13;88.56;102118.91;7397194;19;20029;-65
2022/10/07 07:26:40;;;;;;;15.02;7.47;;;;;;;7.21;88.40;102109.44;7394718;19;20040;-65
2022/10/07 07:29:09;;;;;;;10.52;7.70;;;;;;;7.31;88.15;102113.06;7395139;19;20078;-67
2022/10/07 07:31:41;;;;;;;17.25;8.40;;;;;;;7.39;88.09;102106.19;7396293;19;20018;-65
2022/10/07 07:34:12;;;;;;;11.65;7.55;;;;;;;7.49;88.28;102101.97;7394809;19;20028;-65
2022/10/07 07:36:45;;;;;;;10.57;7.47;;;;;;;7.59;87.81;102108.19;7394497;19;20022;-66
2022/10/07 07:39:17;;;;;;;15.18;8.93;;;;;;;7.68;88.10;102102.22;7396675;19;20031;-66
2022/10/07 07:41:49;;;;;;;12.02;8.10;;;;;;;7.77;87.79;102097.09;7397293;19;20014;-66
2022/10/07 07:44:19;;;;;;;16.77;8.48;;;;;;;7.88;87.59;102099.84;7396012;19;20039;-65
2022/10/07 07:46:52;;;;;;;11.32;7.13;;;;;;;7.96;87.69;102093.84;7394492;19;20010;-66
2022/10/07 07:49:22;;;;;;;14.32;7.60;;;;;;;8.06;87.37;102091.31;7396482;19;20029;-65
2022/10/07 07:51:50;;;;;;;12.85;7.25;;;;;;;8.16;86.97;102087.91;7396895;19;20023;-66
2022/10/07 07:54:19;;;;;;;12.00;7.03;;;;;;;8.26;86.83;102087.13;7395620;19;20090;-65
2022/10/07 07:56:47;;;;;;;11.93;6.65;;;;;;;8.35;86.95;102081.13;7392058;19;20033;-65
2022/10/07 07:59:16;;;;;;;9.55;6.15;;;;;;;8.46;86.51;102082.13;7392964;19;20018;-66
2022/10/07 08:01:45;;;;;;;13.88;6.25;;;;;;;8.54;86.33;102081.31;7393744;19;20262;-64
2022/10/07 08:04:17;;;;;;;10.50;5.80;;;;;;;8.65;86.30;102084.91;7395324;19;20015;-64
2022/10/07 08:06:46;;;;;;;9.05;5.57;;;;;;;8.75;86.11;102081.47;7394600;19;20090;-65
2022/10/07 08:09:14;;;;;;;10.38;5.88;;;;;;;8.86;85.75;102083.28;7395542;19;20077;-65
2022/10/07 08:11:44;;;;;;;8.88;6.03;;;;;;;8.95;85.38;102075.53;7396112;19;20086;-65
2022/10/07 08:14:13;;;;;;;9.57;5.55;;;;;;;9.04;85.17;102079.94;7396328;19;20090;-65
2022/10/07 08:16:42;;;;;;;12.93;6.03;;;;;;;9.13;84.99;102075.63;7396688;19;20098;-65
2022/10/07 08:19:12;;;;;;;12.00;5.95;;;;;;;9.23;84.67;102073.06;7403438;19;20056;-65
2022/10/07 08:21:43;;;;;;;8.27;5.78;;;;;;;9.31;84.30;102068.72;7399273;19;20021;-66
2022/10/07 08:24:13;;;;;;;9.35;5.60;;;;;;;9.40;84.08;102065.28;7398762;19;20026;-65
2022/10/07 08:26:42;;;;;;;11.73;5.85;;;;;;;9.49;83.83;102065.34;7401790;19;20521;-66
2022/10/07 08:29:12;;;;;;;12.27;5.85;;;;;;;9.57;83.42;102050.50;7400503;19;20026;-66
2022/10/07 08:31:41;;;;;;;15.63;6.40;;;;;;;9.65;83.25;102055.75;7399909;19;20017;-66
2022/10/07 08:34:11;;;;;;;9.88;5.47;;;;;;;9.72;82.77;102056.69;7403380;19;20023;-65
2022/10/07 08:36:46;;;;;;;11.85;5.60;;;;;;;9.80;82.62;102060.19;7401224;19;20014;-65
2022/10/07 08:39:15;;;;;;;9.13;5.38;;;;;;;9.86;82.29;102056.72;7402650;19;20085;-65
2022/10/07 08:41:52;;;;;;;13.32;5.38;;;;;;;9.95;81.86;102052.34;7400188;19;20031;-66
2022/10/07 08:44:26;;;;;;;6.38;4.97;;;;;;;10.05;81.44;102044.50;7399246;19;20082;-65
2022/10/07 08:47:05;;;;;;;9.50;5.75;;;;;;;10.11;80.69;102049.75;7400699;19;20059;-64
2022/10/07 08:49:40;;;;;;;8.65;5.40;;;;;;;10.19;80.73;102042.75;7402412;19;20018;-65
2022/10/07 08:52:27;;;;;;;10.15;4.07;;;;;;;10.27;79.92;102043.66;7399580;19;20485;-65
2022/10/07 08:54:55;;;;;;;7.90;5.10;;;;;;;10.34;80.12;102041.88;7401820;19;20070;-65
2022/10/07 08:57:37;;;;;;;6.82;4.63;;;;;;;10.41;79.73;102040.16;7400283;19;20094;-65
2022/10/07 09:00:08;;;;;;;6.35;4.80;;;;;;;10.49;79.52;102037.53;7401233;19;20082;-65
2022/10/07 09:02:45;;;;;;;12.68;5.22;;;;;;;10.55;78.87;102034.91;7403361;19;20079;-65
2022/10/07 09:05:24;;;;;;;11.25;5.20;;;;;;;10.63;78.68;102032.28;7401721;19;20097;-66
2022/10/07 09:07:59;;;;;;;13.88;4.88;;;;;;;10.70;78.10;102028.78;7399168;19;20399;-65
2022/10/07 09:10:34;;;;;;;9.30;4.32;;;;;;;10.75;78.01;102020.03;7399159;19;20082;-65
2022/10/07 09:13:07;;;;;;;9.18;4.43;;;;;;;10.82;77.41;102018.25;7401493;19;20043;-65
2022/10/07 09:15:43;;;;;;;7.60;4.13;;;;;;;10.91;76.89;102014.72;7400924;19;20026;-65
2022/10/07 09:18:21;;;;;;;9.20;5.10;;;;;;;10.99;76.28;102006.81;7398824;19;20035;-66
2022/10/07 09:20:54;;;;;;;10.40;4.68;;;;;;;11.07;76.68;102012.94;7400034;19;20091;-65
2022/10/07 09:23:32;;;;;;;16.55;6.30;;;;;;;11.15;76.49;102005.03;7400639;19;20027;-65
2022/10/07 09:26:01;;;;;;;10.85;5.25;;;;;;;11.21;76.01;101998.00;7400413;19;20035;-66
2022/10/07 09:28:32;;;;;;;11.07;4.70;;;;;;;11.29;75.74;101989.22;7395721;19;20041;-65
2022/10/07 09:31:01;;;;;;;8.38;4.22;;;;;;;11.36;75.49;101989.16;7399568;19;20513;-66
2022/10/07 09:33:31;;;;;;;9.07;4.97;;;;;;;11.44;75.11;101981.25;7398982;19;20078;-65
2022/10/07 09:36:06;;;;;;;8.82;4.40;;;;;;;11.50;74.73;101981.22;7398694;19;20029;-65
2022/10/07 09:38:39;;;;;;;9.10;4.18;;;;;;;11.58;74.89;101979.38;7397472;19;20432;-66
2022/10/07 09:41:18;;;;;;;9.75;4.40;;;;;;;11.66;74.05;101983.72;7397511;19;20023;-65
2022/10/07 09:44:03;;;;;;;8.07;4.25;;;;;;;11.76;74.19;101974.91;7397795;19;20027;-65
2022/10/07 09:46:45;;;;;;;7.72;4.00;;;;;;;11.86;73.64;101978.34;7398166;19;20015;-65
2022/10/07 09:49:33;;;;;;;6.88;4.20;;;;;;;11.95;73.48;101969.50;7399101;19;20112;-65
2022/10/07 09:52:03;;;;;;;9.85;5.05;;;;;;;12.03;73.27;101967.72;7397019;19;20078;-64
2022/10/07 09:54:37;;;;;;;6.50;4.22;;;;;;;12.09;73.03;101965.03;7400165;19;20018;-65
2022/10/07 09:57:07;;;;;;;10.23;3.67;;;;;;;12.17;72.68;101963.22;7399843;19;20082;-66
2022/10/07 09:59:36;;;;;;;6.38;4.18;;;;;;;12.27;72.28;101960.50;7397968;19;20035;-65
2022/10/07 10:02:22;;;;;;;8.88;4.57;;;;;;;12.34;71.47;101965.69;7398043;19;20022;-65
2022/10/07 10:04:52;;;;;;;10.65;5.35;;;;;;;12.42;72.26;101957.72;7398656;19;20074;-65
2022/10/07 10:07:25;;;;;;;8.52;4.40;;;;;;;12.51;71.82;101955.00;7398026;19;20074;-65
2022/10/07 10:10:02;;;;;;;7.50;4.15;;;;;;;12.58;71.40;101961.06;7398201;19;20410;-66
2022/10/07 10:12:36;;;;;;;11.43;4.32;;;;;;;12.64;71.29;101953.09;7396104;19;20350;-66
2022/10/07 10:15:25;;;;;;;7.05;4.00;;;;;;;12.71;70.57;101946.00;7397458;19;20375;-65
2022/10/07 10:17:55;;;;;;;7.60;3.65;;;;;;;12.78;70.51;101946.81;7397219;19;20086;-66
2022/10/07 10:20:34;;;;;;;8.93;3.47;;;;;;;12.86;69.50;101944.94;7397475;19;20025;-67
2022/10/07 10:23:23;;;;;;;10.88;3.45;;;;;;;12.93;69.57;101943.09;7397153;19;20017;-65
2022/10/07 10:28:54;;;;;;;9.13;3.58;;;;;;;13.07;69.20;101922.75;7395853;19;20018;-65
2022/10/07 10:31:34;;;;;;;6.43;3.70;;;;;;;13.15;68.38;101930.53;7397352;19;20011;-65
2022/10/07 10:34:09;;;;;;;5.38;3.40;;;;;;;13.24;68.53;101917.22;7396751;19;20457;-65
2022/10/07 10:36:44;;;;;;;8.23;2.90;;;;;;;13.29;68.33;101911.91;7395150;19;20025;-65
2022/10/07 10:39:24;;;;;;;9.75;3.53;;;;;;;13.38;67.04;101903.88;7397293;19;20030;-66
2022/10/07 10:41:59;;;;;;;6.70;3.42;;;;;;;13.46;67.00;101904.66;7396668;19;20022;-65
2022/10/07 10:44:50;;;;;;;3.17;2.50;;;;;;;13.58;65.97;101902.72;7398794;19;20018;-68
2022/10/07 10:47:32;;;;;;;8.68;3.38;;;;;;;13.64;66.13;101886.81;7396271;19;20031;-65
2022/10/07 10:50:13;;;;;;;9.25;2.47;;;;;;;13.72;65.22;101889.31;7398240;19;20018;-65
2022/10/07 10:52:55;;;;;;;5.93;3.13;;;;;;;13.78;65.46;101879.50;7395967;19;20018;-65
2022/10/07 10:55:41;;;;;;;6.53;2.88;;;;;;;13.87;64.24;101873.22;7397171;19;20022;-66
2022/10/07 10:58:25;;;;;;;4.85;3.10;;;;;;;13.95;64.42;101873.06;7396878;19;20086;-65
2022/10/07 11:01:01;;;;;;;4.43;2.83;;;;;;;14.00;64.55;101860.66;7395403;19;20022;-65
2022/10/07 11:04:00;;;;;;;8.15;2.70;;;;;;;14.06;63.71;101860.56;7395212;19;20014;-66
2022/10/07 11:06:30;;;;;;;5.53;2.85;;;;;;;14.13;64.29;101854.28;7395332;19;20019;-65
2022/10/07 11:09:01;;;;;;;6.78;2.40;;;;;;;14.21;64.16;101848.00;7397046;19;20022;-66
2022/10/07 11:11:30;;;;;;;9.25;2.60;;;;;;;14.29;63.75;101840.78;7396459;19;20035;-64
2022/10/07 11:14:06;;;;;;;4.78;2.17;;;;;;;14.37;62.73;101833.59;7395663;19;20086;-66
2022/10/07 11:16:40;;;;;;;6.72;2.25;;;;;;;14.44;62.52;101829.03;7394046;19;20015;-65
2022/10/07 11:19:16;;;;;;;4.88;2.28;;;;;;;14.49;61.78;101822.78;7395651;19;20018;-66
2022/10/07 11:21:48;;;;;;;6.80;3.25;;;;;;;14.58;61.93;101819.03;7394099;19;20082;-65
2022/10/07 11:24:21;;;;;;;6.25;1.90;;;;;;;14.64;61.81;101812.78;7394525;19;20067;-66
2022/10/07 11:26:56;;;;;;;3.10;1.88;;;;;;;14.71;61.11;101803.84;7393962;19;20030;-65
2022/10/07 11:29:35;;;;;;;5.28;1.77;;;;;;;14.77;59.24;101795.81;7394346;19;20013;-65
2022/10/07 11:32:12;;;;;;;7.65;2.00;;;;;;;14.82;59.62;101795.69;7394050;19;20023;-64
2022/10/07 11:34:46;;;;;;;4.65;1.75;;;;;;;14.86;59.50;101792.09;7393782;19;20097;-64
2022/10/07 11:37:19;;;;;;;;;;;;;;;14.90;59.52;101784.94;7394752;19;20037;-65
2022/10/07 11:39:54;;;;;;;4.07;1.83;;;;;;;14.94;59.48;101779.53;7395817;19;19994;-64
2022/10/07 11:42:35;;;;;;;4.75;1.90;;;;;;;15.02;59.00;101773.22;7393560;19;20019;-64
2022/10/07 11:45:11;;;;;;;7.97;3.10;;;;;;;15.09;57.61;101770.38;7394145;19;20014;-65
2022/10/07 11:47:49;;;;;;;5.72;1.67;;;;;;;15.17;56.92;101753.47;7392578;19;20018;-65
2022/10/07 11:50:21;;;;;;;4.55;1.98;;;;;;;15.23;56.47;101755.97;7395680;19;20109;-64
2022/10/07 11:52:53;;;;;;;7.75;1.58;;;;;;;15.31;54.46;101760.13;7397257;19;20024;-65
2022/10/07 11:55:25;;;;;;;5.03;1.80;;;;;;;15.38;55.03;101749.41;7402456;19;20082;-65
2022/10/07 11:57:56;;;;;;;3.92;1.45;;;;;;;15.45;54.62;101751.84;7399814;19;20422;-64